Time;durP1;ratioP1;P1;durP2;ratioP2;P2;SDS_P1;SDS_P2;PMS_P1;PMS_P2;Temp;Humidity;BMP_temperature;BMP_pressure;BME280_temperature;BME280_humidity;BME280_pressure;Samples;Min_cycle;Max_cycle;Signal;HPM_P1;HPM_P2
2021/09/24 00:00:17;;;;;;;0.93;0.45;;;;;;;10.51;87.84;100506.41;5101226;28;20048;-82
2021/09/24 00:02:46;;;;;;;1.23;0.65;;;;;;;10.64;86.87;100503.00;5099340;28;20047;-82
2021/09/24 00:05:14;;;;;;;0.65;0.50;;;;;;;10.59;87.71;100507.69;5096624;28;20051;-80
2021/09/24 00:07:42;;;;;;;0.55;0.50;;;;;;;10.57;87.42;100499.00;5092321;28;20052;-81
2021/09/24 00:10:12;;;;;;;0.85;0.60;;;;;;;10.62;87.04;100493.50;5095836;28;20059;-80
2021/09/24 00:12:41;;;;;;;0.57;0.50;;;;;;;10.63;86.81;100503.28;5093574;28;20051;-82
2021/09/24 00:15:18;;;;;;;0.70;0.50;;;;;;;10.59;87.18;100494.06;5101953;28;20145;-81
2021/09/24 00:17:51;;;;;;;0.75;0.65;;;;;;;10.53;87.91;100483.22;5092821;28;20476;-81
2021/09/24 00:20:20;;;;;;;0.80;0.52;;;;;;;10.53;87.28;100502.28;5107495;28;20062;-80
2021/09/24 00:22:53;;;;;;;0.47;0.40;;;;;;;10.49;87.40;100500.41;5109816;28;20056;-81
2021/09/24 00:25:26;;;;;;;0.60;0.52;;;;;;;10.49;87.33;100495.78;5100864;28;20043;-81
2021/09/24 00:28:03;;;;;;;0.93;0.60;;;;;;;10.54;86.79;100497.66;5103089;28;20035;-81
2021/09/24 00:30:37;;;;;;;0.50;0.40;;;;;;;10.74;85.26;100484.97;5097881;28;20059;-81
2021/09/24 00:33:12;;;;;;;0.73;0.40;;;;;;;10.70;85.04;100498.34;5096099;28;20114;-80
2021/09/24 00:35:45;;;;;;;0.50;0.50;;;;;;;10.71;85.34;100499.97;5097859;28;20381;-81
2021/09/24 00:38:18;;;;;;;0.68;0.60;;;;;;;10.69;84.50;100496.72;5090540;28;20044;-81
2021/09/24 00:40:52;;;;;;;0.95;0.60;;;;;;;10.71;84.43;100502.69;5098111;28;20054;-81
2021/09/24 00:43:25;;;;;;;0.40;0.40;;;;;;;10.70;84.91;100487.44;5094643;28;20040;-82
2021/09/24 00:46:00;;;;;;;0.68;0.50;;;;;;;10.70;85.00;100501.06;5108781;27;20044;-80
2021/09/24 00:48:29;;;;;;;0.85;0.50;;;;;;;10.57;85.92;100509.91;5098414;28;20556;-81
2021/09/24 00:51:02;;;;;;;0.85;0.57;;;;;;;10.62;85.12;100518.00;5101053;28;20059;-80
2021/09/24 00:53:31;;;;;;;1.38;0.65;;;;;;;10.54;85.47;100520.22;5097260;28;20115;-81
2021/09/24 00:55:59;;;;;;;0.95;0.68;;;;;;;10.48;85.78;100505.06;5101975;28;20044;-81
2021/09/24 00:58:28;;;;;;;0.75;0.60;;;;;;;10.52;86.47;100518.88;5100810;28;20058;-82
2021/09/24 01:00:56;;;;;;;0.40;0.35;;;;;;;10.48;86.92;100521.38;5108271;27;20051;-80
2021/09/24 01:03:31;;;;;;;0.60;0.50;;;;;;;10.42;87.69;100524.41;5096571;28;20058;-81
2021/09/24 01:06:14;;;;;;;0.52;0.50;;;;;;;10.40;88.66;100534.75;5091446;28;20423;-82
2021/09/24 01:08:44;;;;;;;0.52;0.50;;;;;;;10.31;89.90;100548.13;5094401;28;20051;-81
2021/09/24 01:11:17;;;;;;;0.73;0.60;;;;;;;10.28;90.22;100543.25;5095552;28;20048;-80
2021/09/24 01:13:50;;;;;;;1.15;0.60;;;;;;;10.33;90.30;100540.47;5093186;28;20055;-81
2021/09/24 01:16:24;;;;;;;0.82;0.63;;;;;;;10.25;90.87;100531.00;5090691;28;20110;-81
2021/09/24 01:18:58;;;;;;;1.05;0.50;;;;;;;10.34;90.58;100532.09;5096636;28;20047;-81
2021/09/24 01:21:34;;;;;;;1.20;0.73;;;;;;;10.29;91.46;100536.69;5096610;28;20048;-82
2021/09/24 01:24:08;;;;;;;1.00;0.70;;;;;;;10.30;91.30;100539.16;5096856;28;20048;-80
2021/09/24 01:26:46;;;;;;;0.88;0.60;;;;;;;10.26;91.39;100521.75;5093182;28;20048;-81
2021/09/24 01:29:15;;;;;;;1.23;0.70;;;;;;;10.30;91.52;100538.31;5098400;28;20415;-80
2021/09/24 01:31:48;;;;;;;1.13;0.55;;;;;;;10.24;91.70;100539.47;5094571;28;20101;-81
2021/09/24 01:34:21;;;;;;;1.40;0.88;;;;;;;10.20;91.94;100544.63;5103782;28;20077;-80
2021/09/24 01:36:56;;;;;;;1.05;0.63;;;;;;;10.16;92.77;100557.16;5098099;28;20411;-81
2021/09/24 01:39:29;;;;;;;0.70;0.70;;;;;;;10.18;92.37;100561.22;5100791;28;20040;-81
2021/09/24 01:42:03;;;;;;;1.48;0.70;;;;;;;9.96;93.44;100550.75;5098236;28;20404;-82
2021/09/24 01:44:36;;;;;;;1.27;0.63;;;;;;;10.02;93.49;100554.25;5102243;28;20046;-82
2021/09/24 01:47:05;;;;;;;0.77;0.52;;;;;;;10.10;93.54;100561.81;5089747;28;20044;-81
2021/09/24 01:49:38;;;;;;;1.77;0.60;;;;;;;10.25;92.73;100558.22;5096278;28;20036;-81
2021/09/24 01:52:09;;;;;;;1.15;0.70;;;;;;;10.05;93.35;100564.56;5090663;28;20059;-81
2021/09/24 01:54:37;;;;;;;0.90;0.55;;;;;;;10.05;93.03;100559.13;5099187;28;20395;-82
2021/09/24 01:57:11;;;;;;;1.08;0.68;;;;;;;10.10;92.69;100564.53;5095290;28;20044;-80
2021/09/24 01:59:44;;;;;;;1.33;0.60;;;;;;;10.03;93.88;100575.72;5101953;28;20040;-81
2021/09/24 02:02:13;;;;;;;0.95;0.60;;;;;;;10.07;93.28;100577.88;5097471;28;20047;-81
2021/09/24 02:04:46;;;;;;;0.98;0.60;;;;;;;10.00;94.42;100572.75;5093249;28;20055;-81
2021/09/24 02:07:21;;;;;;;1.77;0.75;;;;;;;9.93;94.51;100575.75;5094634;28;20048;-80
2021/09/24 02:09:54;;;;;;;1.20;0.75;;;;;;;9.86;94.66;100575.25;5097272;28;20052;-80
2021/09/24 02:12:22;;;;;;;1.33;0.73;;;;;;;9.78;95.17;100576.63;5089027;28;20055;-80
2021/09/24 02:14:56;;;;;;;0.50;0.50;;;;;;;9.79;95.49;100566.56;5093921;28;20059;-81
2021/09/24 02:17:29;;;;;;;1.45;0.70;;;;;;;9.80;95.58;100566.28;5092832;28;20059;-81
2021/09/24 02:19:59;;;;;;;1.70;0.88;;;;;;;9.81;96.12;100573.34;5100452;28;20842;-82
2021/09/24 02:22:34;;;;;;;0.80;0.57;;;;;;;9.86;95.66;100584.22;5101944;28;20494;-81
2021/09/24 02:25:02;;;;;;;1.30;0.80;;;;;;;9.84;96.53;100586.38;5109839;28;20052;-82
2021/09/24 02:27:35;;;;;;;1.23;0.70;;;;;;;10.00;95.54;100589.06;5103861;28;20058;-82
2021/09/24 02:30:09;;;;;;;0.75;0.50;;;;;;;9.90;95.55;100584.44;5093014;28;20048;-81
2021/09/24 02:32:45;;;;;;;1.15;0.60;;;;;;;9.94;95.60;100588.25;5102153;28;20055;-80
2021/09/24 02:35:18;;;;;;;1.15;0.70;;;;;;;9.98;95.50;100591.22;5100926;28;20404;-81
2021/09/24 02:37:53;;;;;;;1.08;0.70;;;;;;;10.00;95.86;100589.88;5111020;28;20523;-81
2021/09/24 02:40:26;;;;;;;0.80;0.60;;;;;;;9.93;95.88;100581.19;5097163;28;20048;-81
2021/09/24 02:42:59;;;;;;;1.08;0.65;;;;;;;9.92;95.57;100585.00;5098362;28;20051;-81
2021/09/24 02:45:32;;;;;;;0.80;0.70;;;;;;;10.04;95.49;100585.50;5111881;28;20476;-81
2021/09/24 02:48:06;;;;;;;0.73;0.50;;;;;;;9.90;95.83;100589.09;5106399;28;20058;-81
2021/09/24 02:50:39;;;;;;;1.85;0.80;;;;;;;9.86;96.21;100591.56;5103655;28;20086;-81
2021/09/24 02:53:14;;;;;;;1.25;0.70;;;;;;;9.81;96.73;100594.28;5104128;27;20040;-82
2021/09/24 02:55:47;;;;;;;0.70;0.60;;;;;;;9.82;96.13;100604.88;5092716;28;20060;-80
2021/09/24 02:58:20;;;;;;;1.00;0.50;;;;;;;9.92;96.30;100600.50;5105783;28;20031;-81
2021/09/24 03:00:53;;;;;;;0.85;0.60;;;;;;;9.88;95.75;100605.69;5100160;28;20039;-81
2021/09/24 03:03:32;;;;;;;1.50;0.70;;;;;;;9.69;96.87;100608.16;5102867;28;20036;-81
2021/09/24 03:06:05;;;;;;;1.52;0.60;;;;;;;9.73;97.43;100613.88;5097768;28;20047;-80
2021/09/24 03:08:39;;;;;;;1.25;0.68;;;;;;;9.77;96.46;100618.47;5109557;28;20039;-81
2021/09/24 03:11:13;;;;;;;1.08;0.70;;;;;;;9.70;96.57;100616.03;5110397;28;20031;-81
2021/09/24 03:13:47;;;;;;;1.15;0.70;;;;;;;9.72;97.03;100613.03;5113159;28;20055;-80
2021/09/24 03:16:20;;;;;;;1.10;0.60;;;;;;;9.82;96.63;100614.94;5102622;28;20052;-82
2021/09/24 03:18:53;;;;;;;0.57;0.52;;;;;;;9.79;95.97;100615.47;5104385;28;20407;-80
2021/09/24 03:21:27;;;;;;;0.70;0.57;;;;;;;9.73;95.77;100611.97;5104879;28;20039;-80
2021/09/24 03:23:56;;;;;;;0.50;0.50;;;;;;;9.69;96.54;100605.44;5106043;28;20055;-81
2021/09/24 03:26:30;;;;;;;1.05;0.57;;;;;;;9.55;96.72;100616.09;5099883;28;20059;-80
2021/09/24 03:29:03;;;;;;;1.15;0.60;;;;;;;9.64;96.66;100606.28;5117826;27;20408;-81
2021/09/24 03:31:37;;;;;;;1.02;0.75;;;;;;;9.45;96.96;100605.25;5105529;28;20460;-81
2021/09/24 03:34:11;;;;;;;1.13;0.55;;;;;;;9.37;98.32;100620.19;5104600;28;20047;-80
2021/09/24 03:36:44;;;;;;;0.95;0.50;;;;;;;9.42;97.70;100616.63;5098965;28;20044;-80
2021/09/24 03:39:19;;;;;;;2.05;0.85;;;;;;;9.36;97.94;100611.22;5101531;28;20059;-81
2021/09/24 03:41:54;;;;;;;1.75;0.70;;;;;;;9.45;97.94;100616.13;5122087;27;20052;-80
2021/09/24 03:44:28;;;;;;;1.25;0.70;;;;;;;9.33;98.06;100621.81;5105451;28;20047;-81
2021/09/24 03:47:01;;;;;;;1.63;0.80;;;;;;;9.38;97.28;100613.66;5104584;27;20048;-82
2021/09/24 03:49:29;;;;;;;1.00;0.70;;;;;;;9.40;97.30;100616.91;5097694;28;20051;-82
2021/09/24 03:52:03;;;;;;;1.08;0.50;;;;;;;9.26;97.72;100605.00;5101339;28;20883;-81
2021/09/24 03:54:33;;;;;;;1.92;0.85;;;;;;;9.41;97.51;100621.25;5104458;28;20048;-81
2021/09/24 03:57:06;;;;;;;0.80;0.60;;;;;;;9.25;98.39;100631.31;5095310;28;20047;-81
2021/09/24 03:59:34;;;;;;;1.02;0.60;;;;;;;9.22;98.58;100623.72;5110843;27;20056;-81
2021/09/24 04:02:07;;;;;;;1.05;0.60;;;;;;;9.26;98.58;100627.50;5109134;28;20052;-81
2021/09/24 04:04:41;;;;;;;1.00;0.60;;;;;;;9.30;97.17;100633.22;5100729;28;20048;-82
2021/09/24 04:07:15;;;;;;;0.93;0.47;;;;;;;9.23;98.63;100640.84;5097361;28;20052;-82
2021/09/24 04:09:49;;;;;;;1.33;0.80;;;;;;;9.17;98.62;100631.88;5105175;28;20056;-81
2021/09/24 04:12:23;;;;;;;1.45;0.70;;;;;;;9.17;98.21;100635.41;5092718;28;20397;-82
2021/09/24 04:14:56;;;;;;;1.17;0.77;;;;;;;9.16;98.20;100641.09;5103378;28;20055;-81
2021/09/24 04:17:29;;;;;;;1.17;0.60;;;;;;;9.13;97.87;100645.19;5102521;28;20070;-82
2021/09/24 04:19:57;;;;;;;1.95;0.60;;;;;;;9.19;98.11;100643.28;5100221;28;20111;-81
2021/09/24 04:22:27;;;;;;;1.38;0.75;;;;;;;9.30;97.65;100638.66;5096815;28;20051;-82
2021/09/24 04:25:01;;;;;;;1.15;0.73;;;;;;;9.19;97.46;100654.13;5100237;28;20048;-81
2021/09/24 04:27:35;;;;;;;0.88;0.60;;;;;;;9.20;97.99;100655.78;5090713;28;20052;-81
2021/09/24 04:30:14;;;;;;;1.38;0.80;;;;;;;9.09;97.49;100657.66;5101331;28;20051;-82
2021/09/24 04:32:48;;;;;;;1.00;0.63;;;;;;;9.04;97.70;100637.84;5106369;28;20056;-81
2021/09/24 04:35:24;;;;;;;0.85;0.50;;;;;;;9.16;98.03;100662.81;5094247;28;20055;-81
2021/09/24 04:37:58;;;;;;;1.20;0.63;;;;;;;9.20;97.79;100658.50;5107416;28;20063;-81
2021/09/24 04:40:33;;;;;;;1.10;0.60;;;;;;;9.15;97.94;100658.47;5100659;28;20467;-81
2021/09/24 04:43:06;;;;;;;1.60;0.70;;;;;;;9.08;98.24;100669.59;5097493;28;20051;-81
2021/09/24 04:45:39;;;;;;;0.68;0.50;;;;;;;9.18;97.15;100657.94;5093408;28;20071;-81
2021/09/24 04:48:07;;;;;;;0.95;0.60;;;;;;;9.13;97.92;100666.91;5099585;28;20142;-81
2021/09/24 04:50:41;;;;;;;1.08;0.60;;;;;;;9.04;98.47;100662.28;5097273;28;20043;-81
2021/09/24 04:53:14;;;;;;;0.88;0.50;;;;;;;8.84;98.97;100669.31;5097151;28;20042;-81
2021/09/24 04:55:48;;;;;;;1.00;0.63;;;;;;;8.96;98.52;100666.31;5093176;28;20043;-81
2021/09/24 04:58:21;;;;;;;0.90;0.52;;;;;;;8.87;99.76;100670.66;5093469;28;20076;-80
2021/09/24 05:00:54;;;;;;;1.27;0.70;;;;;;;8.81;99.50;100667.09;5090663;28;20534;-81
2021/09/24 05:03:34;;;;;;;1.35;0.77;;;;;;;8.78;100.00;100675.78;5096105;28;20051;-80
2021/09/24 05:06:07;;;;;;;1.15;0.70;;;;;;;8.76;100.00;100676.06;5102726;28;20048;-81
2021/09/24 05:08:40;;;;;;;1.33;0.60;;;;;;;8.76;99.77;100672.53;5096276;28;20043;-81
2021/09/24 05:11:14;;;;;;;0.80;0.50;;;;;;;8.84;100.00;100672.03;5104729;28;20051;-81
2021/09/24 05:13:47;;;;;;;1.50;0.80;;;;;;;8.81;99.64;100675.25;5092869;28;20048;-81
2021/09/24 05:16:21;;;;;;;1.58;0.60;;;;;;;8.85;100.00;100681.78;5089114;28;20082;-81
2021/09/24 05:18:49;;;;;;;0.90;0.65;;;;;;;8.73;100.00;100676.59;5102532;28;20391;-81
2021/09/24 05:21:24;;;;;;;0.82;0.50;;;;;;;8.76;100.00;100686.91;5102878;28;20407;-81
2021/09/24 05:23:58;;;;;;;1.38;0.80;;;;;;;8.86;100.00;100686.13;5097806;28;20502;-82
2021/09/24 05:26:32;;;;;;;0.73;0.60;;;;;;;8.94;100.00;100688.31;5098258;28;20051;-82
2021/09/24 05:29:00;;;;;;;1.38;0.70;;;;;;;8.96;100.00;100682.59;5100329;28;20052;-81
2021/09/24 05:31:34;;;;;;;1.15;0.60;;;;;;;8.92;100.00;100682.34;5098382;28;20059;-82
2021/09/24 05:34:07;;;;;;;0.93;0.60;;;;;;;8.97;100.00;100685.06;5102856;28;20491;-81
2021/09/24 05:36:40;;;;;;;0.98;0.73;;;;;;;9.00;100.00;100686.41;5100672;28;20048;-80
2021/09/24 05:39:14;;;;;;;1.85;0.80;;;;;;;9.07;99.82;100686.16;5100751;28;20043;-83
2021/09/24 05:41:49;;;;;;;1.75;0.75;;;;;;;9.03;100.00;100675.00;5106510;28;20577;-81
2021/09/24 05:44:22;;;;;;;1.15;0.70;;;;;;;9.09;99.98;100686.72;5101444;28;20044;-81
2021/09/24 05:46:55;;;;;;;2.45;0.80;;;;;;;9.03;99.93;100688.59;5101176;28;20054;-81
2021/09/24 05:49:30;;;;;;;1.67;0.73;;;;;;;9.08;100.00;100682.38;5106078;28;20480;-81
2021/09/24 05:52:04;;;;;;;1.40;0.77;;;;;;;9.16;100.00;100689.97;5099207;28;20039;-80
2021/09/24 05:54:32;;;;;;;1.17;0.80;;;;;;;9.06;100.00;100696.22;5100019;28;20070;-81
2021/09/24 05:57:02;;;;;;;0.98;0.60;;;;;;;9.06;100.00;100693.50;5101713;28;20054;-81
2021/09/24 05:59:35;;;;;;;1.45;0.80;;;;;;;9.02;100.00;100708.69;5097396;28;20061;-80
2021/09/24 06:02:08;;;;;;;0.95;0.50;;;;;;;9.01;100.00;100704.34;5101161;28;20498;-80
2021/09/24 06:04:41;;;;;;;1.08;0.70;;;;;;;9.14;100.00;100703.00;5105018;28;20039;-82
2021/09/24 06:07:15;;;;;;;0.98;0.57;;;;;;;9.08;100.00;100683.16;5100899;28;20098;-81
2021/09/24 06:09:43;;;;;;;1.98;0.80;;;;;;;9.12;100.00;100692.41;5106389;27;20075;-81
2021/09/24 06:12:17;;;;;;;1.02;0.77;;;;;;;9.12;100.00;100686.97;5105772;28;20047;-82
2021/09/24 06:14:51;;;;;;;1.27;0.57;;;;;;;9.31;100.00;100689.19;5104563;28;20051;-82
2021/09/24 06:17:24;;;;;;;0.95;0.50;;;;;;;9.42;100.00;100681.81;5102556;28;20043;-81
2021/09/24 06:19:57;;;;;;;1.13;0.52;;;;;;;9.41;100.00;100689.16;5094931;28;20051;-82
2021/09/24 06:22:32;;;;;;;0.50;0.50;;;;;;;9.47;100.00;100688.09;5100047;28;20048;-81
2021/09/24 06:25:00;;;;;;;1.40;0.63;;;;;;;9.44;100.00;100691.34;5098841;28;20055;-82
2021/09/24 06:27:36;;;;;;;1.30;0.65;;;;;;;9.53;100.00;100697.88;5100105;28;20051;-83
2021/09/24 06:31:01;;;;;;;1.50;0.90;;;;;;;9.66;100.00;100698.41;5096089;28;20047;-81
2021/09/24 06:33:35;;;;;;;1.00;0.50;;;;;;;9.71;100.00;100690.25;5094319;28;20044;-82
2021/09/24 06:36:04;;;;;;;1.05;0.70;;;;;;;9.81;99.19;100692.13;5097293;28;20415;-83
2021/09/24 06:38:32;;;;;;;0.60;0.50;;;;;;;9.82;100.00;100700.00;5093945;28;20063;-81
2021/09/24 06:41:00;;;;;;;1.13;0.65;;;;;;;9.82;99.91;100694.56;5093579;28;20048;-82
2021/09/24 06:43:35;;;;;;;0.98;0.63;;;;;;;9.99;100.00;100691.53;5115190;27;20047;-81
2021/09/24 06:46:08;;;;;;;1.35;0.68;;;;;;;10.01;100.00;100711.13;5094611;28;20814;-82
2021/09/24 06:48:42;;;;;;;1.13;0.73;;;;;;;10.13;100.00;100697.22;5095240;28;20756;-82
2021/09/24 06:51:15;;;;;;;0.82;0.60;;;;;;;10.13;99.90;100705.38;5098950;28;20047;-82
2021/09/24 06:53:43;;;;;;;0.95;0.57;;;;;;;10.30;99.85;100710.50;5094550;28;20071;-82
2021/09/24 06:56:19;;;;;;;1.08;0.50;;;;;;;10.24;99.07;100703.44;5094017;28;20055;-81
2021/09/24 06:58:53;;;;;;;0.52;0.50;;;;;;;10.13;99.49;100693.69;5095671;28;20059;-81
2021/09/24 07:01:27;;;;;;;1.15;0.68;;;;;;;10.23;99.05;100711.88;5094983;28;20047;-81
2021/09/24 07:04:00;;;;;;;1.02;0.50;;;;;;;10.30;100.00;100715.94;5098774;28;20063;-81
2021/09/24 07:06:33;;;;;;;1.55;0.70;;;;;;;10.44;99.98;100713.47;5097590;28;20075;-81
2021/09/24 07:09:07;;;;;;;1.02;0.60;;;;;;;10.35;100.00;100709.69;5095521;28;20055;-81
2021/09/24 07:11:42;;;;;;;1.38;0.60;;;;;;;10.40;100.00;100719.75;5098948;28;20048;-81
2021/09/24 07:14:12;;;;;;;0.90;0.60;;;;;;;10.45;100.00;100723.25;5095284;28;20062;-82
2021/09/24 07:16:47;;;;;;;0.80;0.55;;;;;;;10.64;99.40;100722.66;5091280;28;20499;-82
2021/09/24 07:19:22;;;;;;;1.02;0.70;;;;;;;10.64;99.94;100711.75;5090107;28;20066;-81
2021/09/24 07:21:55;;;;;;;0.88;0.60;;;;;;;10.76;100.00;100714.13;5094100;28;20499;-81
2021/09/24 07:24:24;;;;;;;1.20;0.77;;;;;;;10.83;99.50;100712.75;5093180;28;20917;-82
2021/09/24 07:26:57;;;;;;;0.80;0.60;;;;;;;11.04;100.00;100705.25;5096370;28;20054;-82
2021/09/24 07:29:31;;;;;;;2.45;0.70;;;;;;;10.98;100.00;100714.56;5090741;28;20495;-81
2021/09/24 07:32:05;;;;;;;0.90;0.50;;;;;;;11.07;99.92;100703.88;5093161;28;20043;-81
2021/09/24 07:34:33;;;;;;;1.35;0.80;;;;;;;11.15;100.00;100711.47;5084752;28;20058;-81
2021/09/24 07:37:02;;;;;;;1.00;0.60;;;;;;;11.20;99.66;100702.47;5098183;28;20101;-81
2021/09/24 07:39:36;;;;;;;0.57;0.50;;;;;;;11.29;99.56;100702.66;5092921;28;20133;-81
2021/09/24 07:42:09;;;;;;;0.82;0.60;;;;;;;11.48;98.66;100697.34;5094770;28;20066;-81
2021/09/24 07:44:44;;;;;;;1.02;0.60;;;;;;;11.67;99.10;100700.97;5094777;28;20797;-81
2021/09/24 07:47:17;;;;;;;0.40;0.40;;;;;;;11.74;99.10;100697.94;5093033;28;21866;-82
2021/09/24 07:49:50;;;;;;;0.60;0.60;;;;;;;11.69;98.75;100698.75;5090725;28;20086;-81
2021/09/24 07:52:24;;;;;;;1.00;0.60;;;;;;;11.76;99.73;100698.44;5097517;28;20048;-81
2021/09/24 07:54:57;;;;;;;0.68;0.40;;;;;;;11.73;100.00;100705.28;5096981;27;20055;-80
2021/09/24 07:57:30;;;;;;;1.00;0.65;;;;;;;11.82;100.00;100705.47;5091263;28;20066;-81
2021/09/24 08:00:09;;;;;;;1.15;0.52;;;;;;;11.85;100.00;100707.63;5092517;28;20059;-81
2021/09/24 08:02:42;;;;;;;0.93;0.68;;;;;;;11.79;100.00;100713.41;5091739;28;20058;-82
2021/09/24 08:05:15;;;;;;;0.80;0.60;;;;;;;11.87;100.00;100704.59;5095405;28;20051;-81
2021/09/24 08:07:48;;;;;;;0.63;0.60;;;;;;;11.84;100.00;100716.09;5110914;27;20051;-81
2021/09/24 08:10:16;;;;;;;0.73;0.50;;;;;;;11.82;100.00;100723.72;5093248;28;20059;-82
2021/09/24 08:12:45;;;;;;;1.23;0.63;;;;;;;11.87;100.00;100720.97;5092661;28;20846;-81
2021/09/24 08:15:20;;;;;;;0.82;0.50;;;;;;;11.87;100.00;100726.41;5096986;28;20585;-81
2021/09/24 08:17:54;;;;;;;0.50;0.50;;;;;;;11.97;100.00;100728.25;5092052;28;20789;-82
2021/09/24 08:20:27;;;;;;;0.40;0.40;;;;;;;11.98;100.00;100727.97;5087082;28;20071;-81
2021/09/24 08:22:56;;;;;;;0.70;0.52;;;;;;;12.08;100.00;100725.16;5092521;28;20089;-82
2021/09/24 08:25:29;;;;;;;0.40;0.40;;;;;;;12.04;100.00;100726.00;5090908;28;20048;-83
2021/09/24 08:27:57;;;;;;;0.90;0.50;;;;;;;12.11;100.00;100726.50;5097399;28;20051;-82
2021/09/24 08:30:32;;;;;;;1.05;0.50;;;;;;;12.22;100.00;100729.91;5102425;27;20060;-81
2021/09/24 08:33:05;;;;;;;0.70;0.50;;;;;;;12.30;100.00;100723.00;5089757;28;20043;-81
2021/09/24 08:35:39;;;;;;;0.52;0.40;;;;;;;12.20;100.00;100729.41;5090415;28;20044;-82
2021/09/24 08:38:13;;;;;;;0.88;0.60;;;;;;;12.35;100.00;100736.59;5090254;28;20055;-80
2021/09/24 08:40:42;;;;;;;0.77;0.60;;;;;;;12.48;100.00;100719.50;5094071;28;20055;-80
2021/09/24 08:43:12;;;;;;;0.95;0.55;;;;;;;12.66;100.00;100730.78;5093207;28;20047;-81
2021/09/24 08:45:48;;;;;;;0.63;0.40;;;;;;;12.71;100.00;100717.06;5086642;28;20043;-81
2021/09/24 08:48:17;;;;;;;1.13;0.60;;;;;;;12.85;100.00;100719.88;5090310;28;20743;-80
2021/09/24 08:50:50;;;;;;;0.60;0.50;;;;;;;12.93;100.00;100713.75;5089610;28;20055;-80
2021/09/24 08:53:24;;;;;;;0.65;0.50;;;;;;;12.90;100.00;100715.16;5094534;28;20054;-81
2021/09/24 08:55:57;;;;;;;0.40;0.40;;;;;;;13.07;100.00;100724.75;5089516;28;20054;-80
2021/09/24 08:58:31;;;;;;;0.52;0.43;;;;;;;12.83;100.00;100719.34;5090972;28;20067;-81
2021/09/24 09:01:06;;;;;;;0.60;0.50;;;;;;;12.80;100.00;100723.50;5092612;28;20062;-80
2021/09/24 09:03:41;;;;;;;0.43;0.40;;;;;;;12.84;100.00;100737.34;5094595;28;20058;-81
2021/09/24 09:06:10;;;;;;;0.40;0.40;;;;;;;12.82;100.00;100724.00;5090825;28;20408;-80
2021/09/24 09:08:45;;;;;;;0.80;0.50;;;;;;;12.93;100.00;100730.94;5086270;28;20058;-81
2021/09/24 09:11:19;;;;;;;0.75;0.50;;;;;;;13.00;100.00;100730.59;5085741;28;20066;-83
2021/09/24 09:13:51;;;;;;;0.63;0.50;;;;;;;12.87;100.00;100729.41;5088000;28;20051;-81
2021/09/24 09:16:24;;;;;;;0.68;0.50;;;;;;;12.84;100.00;100726.44;5090682;28;20055;-81
2021/09/24 09:19:06;;;;;;;0.90;0.60;;;;;;;12.76;100.00;100725.19;5091896;28;20062;-80
2021/09/24 09:21:37;;;;;;;0.98;0.50;;;;;;;12.89;100.00;100715.44;5093946;28;20381;-81
2021/09/24 09:24:16;;;;;;;1.10;0.50;;;;;;;13.12;100.00;100721.97;5081503;28;20055;-81
2021/09/24 09:26:45;;;;;;;0.82;0.50;;;;;;;13.33;100.00;100711.50;5087577;28;20047;-81
2021/09/24 09:29:18;;;;;;;1.60;0.70;;;;;;;13.34;100.00;100707.69;5092369;28;20487;-81
2021/09/24 09:31:59;;;;;;;0.40;0.40;;;;;;;13.37;100.00;100717.25;5083463;28;20727;-81
2021/09/24 09:34:35;;;;;;;0.68;0.40;;;;;;;13.47;100.00;100706.13;5078947;28;20070;-81
2021/09/24 09:37:15;;;;;;;0.47;0.38;;;;;;;13.81;100.00;100709.66;5082832;28;20056;-81
2021/09/24 09:40:02;;;;;;;0.40;0.40;;;;;;;13.71;100.00;100716.94;5080180;28;20046;-81
2021/09/24 09:42:37;;;;;;;0.73;0.45;;;;;;;13.80;100.00;100705.31;5085429;28;20052;-81
2021/09/24 09:45:14;;;;;;;0.50;0.40;;;;;;;13.91;100.00;100709.50;5083026;28;20657;-81
2021/09/24 09:47:45;;;;;;;0.43;0.40;;;;;;;14.27;99.07;100701.41;5083670;28;20059;-81
2021/09/24 09:50:22;;;;;;;0.30;0.30;;;;;;;14.23;99.24;100716.81;5082067;28;20051;-82
2021/09/24 09:52:59;;;;;;;0.40;0.40;;;;;;;14.10;97.26;100707.47;5088076;28;20913;-82
2021/09/24 09:55:36;;;;;;;0.40;0.40;;;;;;;13.99;98.18;100703.31;5081867;28;20044;-81
2021/09/24 09:58:12;;;;;;;0.30;0.30;;;;;;;13.87;98.31;100717.47;5085235;28;20368;-81
2021/09/24 10:01:12;;;;;;;0.40;0.40;;;;;;;13.82;99.68;100723.03;5084582;28;21552;-81
2021/09/24 10:03:50;;;;;;;0.40;0.40;;;;;;;13.83;98.60;100721.13;5067239;28;20068;-81
2021/09/24 10:06:26;;;;;;;0.40;0.40;;;;;;;13.86;99.68;100715.03;5085111;28;20395;-82
2021/09/24 10:09:01;;;;;;;0.43;0.40;;;;;;;14.04;99.75;100716.09;5101627;28;20062;-81
2021/09/24 10:11:31;;;;;;;0.38;0.35;;;;;;;14.02;99.00;100718.31;5081839;28;20056;-80
2021/09/24 10:14:09;;;;;;;0.73;0.40;;;;;;;14.17;99.30;100700.78;5079824;28;20062;-81
2021/09/24 10:16:44;;;;;;;0.30;0.30;;;;;;;14.03;97.99;100717.19;5080669;28;21366;-80
2021/09/24 10:19:19;;;;;;;0.30;0.30;;;;;;;13.98;99.30;100711.84;5079492;28;20051;-81
2021/09/24 10:21:52;;;;;;;0.20;0.20;;;;;;;14.02;99.33;100712.84;5077867;28;20063;-81
2021/09/24 10:24:26;;;;;;;0.25;0.25;;;;;;;13.97;99.96;100715.69;5078440;28;20040;-81
2021/09/24 10:27:03;;;;;;;0.35;0.35;;;;;;;13.94;99.35;100709.69;5083531;28;20052;-81
2021/09/24 10:29:42;;;;;;;0.20;0.20;;;;;;;13.97;99.31;100716.47;5079800;28;20054;-81
2021/09/24 10:32:14;;;;;;;0.70;0.40;;;;;;;13.82;99.29;100706.63;5076749;28;20051;-81
2021/09/24 10:34:58;;;;;;;0.30;0.30;;;;;;;13.87;99.11;100714.75;5080239;28;20051;-81
2021/09/24 10:37:34;;;;;;;0.32;0.30;;;;;;;13.84;100.00;100714.53;5079988;28;20066;-81
2021/09/24 10:40:27;;;;;;;0.30;0.30;;;;;;;13.92;99.79;100722.03;5083606;28;20052;-81
2021/09/24 10:43:01;;;;;;;0.98;0.40;;;;;;;13.98;100.00;100728.25;5082098;28;20051;-81
2021/09/24 10:45:35;;;;;;;0.68;0.30;;;;;;;13.95;99.66;100719.50;5084694;28;20047;-79
2021/09/24 10:48:17;;;;;;;0.65;0.40;;;;;;;13.91;99.26;100714.97;5080337;28;20055;-80
2021/09/24 10:50:57;;;;;;;0.30;0.30;;;;;;;13.96;100.00;100723.06;5090848;28;20415;-80
2021/09/24 10:53:29;;;;;;;0.30;0.30;;;;;;;14.04;100.00;100719.63;5091032;28;20676;-80
2021/09/24 10:56:35;;;;;;;0.20;0.20;;;;;;;13.97;99.84;100708.25;5091350;28;21247;-80
2021/09/24 10:59:25;;;;;;;0.30;0.30;;;;;;;14.28;100.00;100713.16;5091337;28;20073;-80
2021/09/24 11:01:59;;;;;;;0.47;0.30;;;;;;;14.12;99.82;100707.16;5093189;28;20056;-80
2021/09/24 11:04:48;;;;;;;0.30;0.30;;;;;;;14.14;100.00;100715.91;5091715;28;20048;-81
2021/09/24 11:07:31;;;;;;;0.57;0.32;;;;;;;14.31;99.18;100703.50;5086332;28;20059;-81
2021/09/24 11:10:00;;;;;;;0.38;0.30;;;;;;;14.25;99.63;100713.75;5090873;28;20044;-80
2021/09/24 11:12:29;;;;;;;0.30;0.30;;;;;;;14.34;99.18;100698.25;5089382;28;20466;-80
2021/09/24 11:15:09;;;;;;;0.40;0.40;;;;;;;14.27;99.63;100701.41;5088478;28;20052;-80
2021/09/24 11:17:46;;;;;;;0.38;0.30;;;;;;;14.24;100.00;100707.47;5087646;28;20633;-80
2021/09/24 11:20:35;;;;;;;0.30;0.30;;;;;;;14.08;100.00;100712.44;5100708;27;20056;-80
2021/09/24 11:23:35;;;;;;;0.30;0.30;;;;;;;14.00;100.00;100710.38;5084831;28;20044;-80
2021/09/24 11:26:11;;;;;;;0.40;0.30;;;;;;;13.92;100.00;100706.44;5081272;28;20074;-81
2021/09/24 11:28:46;;;;;;;0.35;0.30;;;;;;;13.89;100.00;100714.44;5085676;28;20564;-81
2021/09/24 11:31:19;;;;;;;0.38;0.38;;;;;;;13.81;100.00;100712.38;5085744;27;20055;-81
2021/09/24 11:33:49;;;;;;;0.32;0.32;;;;;;;13.83;100.00;100705.50;5093872;28;20062;-80
2021/09/24 11:36:57;;;;;;;0.30;0.30;;;;;;;13.70;100.00;100704.38;5092802;28;20047;-81
2021/09/24 11:39:33;;;;;;;0.38;0.30;;;;;;;13.75;100.00;100708.94;5098779;27;20060;-81
2021/09/24 11:42:10;;;;;;;0.40;0.32;;;;;;;13.73;100.00;100698.31;5094039;28;20056;-81
2021/09/24 11:44:43;;;;;;;0.30;0.30;;;;;;;13.82;100.00;100703.88;5094256;28;20051;-81
2021/09/24 11:47:16;;;;;;;0.65;0.40;;;;;;;13.98;100.00;100695.41;5091973;27;20051;-81
2021/09/24 11:49:57;;;;;;;0.25;0.25;;;;;;;13.99;100.00;100692.38;5101677;27;20098;-81
2021/09/24 11:52:39;;;;;;;0.73;0.40;;;;;;;14.07;100.00;100688.09;5082062;28;20063;-81
2021/09/24 11:55:18;;;;;;;0.57;0.40;;;;;;;14.11;100.00;100684.47;5086520;28;20051;-81